sensor_id;sensor_type;location;lat;lon;timestamp;P1;durP1;ratioP1;P2;durP2;ratioP2
37231;SDS011;23125;48.156;15.954;2022-09-12T00:01:37;6.22;;;4.75;;
37231;SDS011;23125;48.156;15.954;2022-09-12T00:04:03;5.40;;;4.68;;
37231;SDS011;23125;48.156;15.954;2022-09-12T00:06:30;8.18;;;5.15;;
37231;SDS011;23125;48.156;15.954;2022-09-12T00:08:59;6.78;;;5.40;;
37231;SDS011;23125;48.156;15.954;2022-09-12T00:11:30;5.95;;;5.35;;
37231;SDS011;23125;48.156;15.954;2022-09-12T00:13:57;7.55;;;5.30;;
37231;SDS011;23125;48.156;15.954;2022-09-12T00:16:25;5.50;;;5.00;;
37231;SDS011;23125;48.156;15.954;2022-09-12T00:18:52;7.45;;;5.43;;
37231;SDS011;23125;48.156;15.954;2022-09-12T00:21:19;5.97;;;5.38;;
37231;SDS011;23125;48.156;15.954;2022-09-12T00:23:46;6.03;;;4.85;;
37231;SDS011;23125;48.156;15.954;2022-09-12T00:26:12;6.32;;;5.03;;
37231;SDS011;23125;48.156;15.954;2022-09-12T00:28:40;6.35;;;5.05;;
37231;SDS011;23125;48.156;15.954;2022-09-12T00:31:08;5.75;;;5.05;;
37231;SDS011;23125;48.156;15.954;2022-09-12T00:33:37;6.13;;;5.13;;
37231;SDS011;23125;48.156;15.954;2022-09-12T00:36:06;5.38;;;4.57;;
37231;SDS011;23125;48.156;15.954;2022-09-12T00:38:34;5.55;;;4.60;;
37231;SDS011;23125;48.156;15.954;2022-09-12T00:41:05;6.47;;;4.57;;
37231;SDS011;23125;48.156;15.954;2022-09-12T00:43:37;5.88;;;4.38;;
37231;SDS011;23125;48.156;15.954;2022-09-12T00:48:45;5.72;;;4.93;;
37231;SDS011;23125;48.156;15.954;2022-09-12T00:51:28;7.85;;;5.07;;
37231;SDS011;23125;48.156;15.954;2022-09-12T00:53:55;6.82;;;5.32;;
37231;SDS011;23125;48.156;15.954;2022-09-12T00:56:23;6.05;;;4.80;;
37231;SDS011;23125;48.156;15.954;2022-09-12T00:59:01;7.35;;;5.50;;
37231;SDS011;23125;48.156;15.954;2022-09-12T01:01:32;6.30;;;4.75;;
37231;SDS011;23125;48.156;15.954;2022-09-12T01:04:00;7.45;;;5.28;;
37231;SDS011;23125;48.156;15.954;2022-09-12T01:06:27;7.10;;;5.25;;
37231;SDS011;23125;48.156;15.954;2022-09-12T01:08:59;6.63;;;4.95;;
37231;SDS011;23125;48.156;15.954;2022-09-12T01:11:29;5.78;;;5.00;;
37231;SDS011;23125;48.156;15.954;2022-09-12T01:13:56;6.10;;;4.82;;
37231;SDS011;23125;48.156;15.954;2022-09-12T01:16:24;7.25;;;5.07;;
37231;SDS011;23125;48.156;15.954;2022-09-12T01:19:13;6.43;;;5.32;;
37231;SDS011;23125;48.156;15.954;2022-09-12T01:24:33;6.07;;;4.72;;
37231;SDS011;23125;48.156;15.954;2022-09-12T01:30:24;6.95;;;5.13;;
37231;SDS011;23125;48.156;15.954;2022-09-12T01:32:54;7.13;;;5.40;;
37231;SDS011;23125;48.156;15.954;2022-09-12T01:38:46;7.78;;;4.82;;
37231;SDS011;23125;48.156;15.954;2022-09-12T01:58:01;9.02;;;5.18;;
37231;SDS011;23125;48.156;15.954;2022-09-12T02:00:43;8.18;;;5.40;;
37231;SDS011;23125;48.156;15.954;2022-09-12T02:03:28;6.85;;;5.18;;
37231;SDS011;23125;48.156;15.954;2022-09-12T02:06:10;6.32;;;5.30;;
37231;SDS011;23125;48.156;15.954;2022-09-12T02:08:47;6.72;;;5.25;;
37231;SDS011;23125;48.156;15.954;2022-09-12T02:11:36;6.68;;;5.15;;
37231;SDS011;23125;48.156;15.954;2022-09-12T02:14:08;7.00;;;4.97;;
37231;SDS011;23125;48.156;15.954;2022-09-12T02:16:41;5.68;;;4.93;;
37231;SDS011;23125;48.156;15.954;2022-09-12T02:19:14;10.02;;;5.35;;
37231;SDS011;23125;48.156;15.954;2022-09-12T02:21:57;8.23;;;4.50;;
37231;SDS011;23125;48.156;15.954;2022-09-12T02:24:27;8.13;;;5.95;;
37231;SDS011;23125;48.156;15.954;2022-09-12T02:27:11;6.90;;;5.32;;
37231;SDS011;23125;48.156;15.954;2022-09-12T02:30:02;6.03;;;4.90;;
37231;SDS011;23125;48.156;15.954;2022-09-12T02:32:36;10.43;;;5.35;;
37231;SDS011;23125;48.156;15.954;2022-09-12T02:40:56;9.02;;;5.13;;
37231;SDS011;23125;48.156;15.954;2022-09-12T02:43:22;8.45;;;5.78;;
37231;SDS011;23125;48.156;15.954;2022-09-12T02:45:48;6.50;;;5.22;;
37231;SDS011;23125;48.156;15.954;2022-09-12T02:48:15;7.18;;;5.03;;
37231;SDS011;23125;48.156;15.954;2022-09-12T02:50:47;7.53;;;5.07;;
37231;SDS011;23125;48.156;15.954;2022-09-12T02:53:13;7.35;;;5.53;;
37231;SDS011;23125;48.156;15.954;2022-09-12T02:55:39;7.07;;;4.97;;
37231;SDS011;23125;48.156;15.954;2022-09-12T02:58:08;7.20;;;5.38;;
37231;SDS011;23125;48.156;15.954;2022-09-12T03:00:48;7.45;;;5.32;;
37231;SDS011;23125;48.156;15.954;2022-09-12T03:06:38;6.78;;;4.72;;
37231;SDS011;23125;48.156;15.954;2022-09-12T03:12:36;5.50;;;4.38;;
37231;SDS011;23125;48.156;15.954;2022-09-12T03:20:28;6.90;;;4.68;;
37231;SDS011;23125;48.156;15.954;2022-09-12T03:23:01;6.00;;;4.60;;
37231;SDS011;23125;48.156;15.954;2022-09-12T03:25:35;5.88;;;4.13;;
37231;SDS011;23125;48.156;15.954;2022-09-12T03:28:08;6.18;;;5.13;;
37231;SDS011;23125;48.156;15.954;2022-09-12T03:30:44;6.93;;;4.38;;
37231;SDS011;23125;48.156;15.954;2022-09-12T03:33:12;5.07;;;4.20;;
37231;SDS011;23125;48.156;15.954;2022-09-12T03:35:40;6.38;;;4.45;;
37231;SDS011;23125;48.156;15.954;2022-09-12T03:38:06;5.95;;;4.65;;
37231;SDS011;23125;48.156;15.954;2022-09-12T03:40:36;7.75;;;5.10;;
37231;SDS011;23125;48.156;15.954;2022-09-12T03:45:29;5.03;;;3.90;;
37231;SDS011;23125;48.156;15.954;2022-09-12T03:47:54;5.97;;;4.45;;
37231;SDS011;23125;48.156;15.954;2022-09-12T03:50:21;5.97;;;4.35;;
37231;SDS011;23125;48.156;15.954;2022-09-12T03:52:47;5.03;;;4.28;;
37231;SDS011;23125;48.156;15.954;2022-09-12T03:55:13;6.70;;;3.95;;
37231;SDS011;23125;48.156;15.954;2022-09-12T03:57:38;6.53;;;4.55;;
37231;SDS011;23125;48.156;15.954;2022-09-12T04:00:05;6.45;;;3.75;;
37231;SDS011;23125;48.156;15.954;2022-09-12T04:02:33;5.65;;;4.15;;
37231;SDS011;23125;48.156;15.954;2022-09-12T04:04:59;4.60;;;3.83;;
37231;SDS011;23125;48.156;15.954;2022-09-12T04:07:25;5.28;;;4.28;;
37231;SDS011;23125;48.156;15.954;2022-09-12T04:09:51;5.18;;;3.85;;
37231;SDS011;23125;48.156;15.954;2022-09-12T04:12:18;4.38;;;3.25;;
37231;SDS011;23125;48.156;15.954;2022-09-12T04:14:44;5.18;;;3.25;;
37231;SDS011;23125;48.156;15.954;2022-09-12T04:17:10;4.43;;;3.15;;
37231;SDS011;23125;48.156;15.954;2022-09-12T04:19:36;5.28;;;3.33;;
37231;SDS011;23125;48.156;15.954;2022-09-12T04:22:02;4.70;;;3.33;;
37231;SDS011;23125;48.156;15.954;2022-09-12T04:24:28;4.97;;;3.40;;
37231;SDS011;23125;48.156;15.954;2022-09-12T04:26:54;5.45;;;4.13;;
37231;SDS011;23125;48.156;15.954;2022-09-12T04:29:20;6.10;;;3.60;;
37231;SDS011;23125;48.156;15.954;2022-09-12T04:31:46;4.43;;;3.15;;
37231;SDS011;23125;48.156;15.954;2022-09-12T04:34:12;3.55;;;3.00;;
37231;SDS011;23125;48.156;15.954;2022-09-12T04:36:39;5.68;;;3.05;;
37231;SDS011;23125;48.156;15.954;2022-09-12T04:39:06;4.78;;;3.30;;
37231;SDS011;23125;48.156;15.954;2022-09-12T04:41:34;5.18;;;3.90;;
37231;SDS011;23125;48.156;15.954;2022-09-12T04:44:03;4.95;;;3.63;;
37231;SDS011;23125;48.156;15.954;2022-09-12T04:46:35;5.63;;;4.15;;
37231;SDS011;23125;48.156;15.954;2022-09-12T04:49:05;7.00;;;4.05;;
37231;SDS011;23125;48.156;15.954;2022-09-12T04:51:33;5.07;;;3.70;;
37231;SDS011;23125;48.156;15.954;2022-09-12T04:54:02;7.68;;;4.35;;
37231;SDS011;23125;48.156;15.954;2022-09-12T04:56:35;7.03;;;4.55;;
37231;SDS011;23125;48.156;15.954;2022-09-12T04:59:04;6.75;;;4.07;;
37231;SDS011;23125;48.156;15.954;2022-09-12T05:01:31;6.28;;;4.65;;
37231;SDS011;23125;48.156;15.954;2022-09-12T05:03:58;5.60;;;4.13;;
37231;SDS011;23125;48.156;15.954;2022-09-12T05:06:28;4.90;;;3.80;;
37231;SDS011;23125;48.156;15.954;2022-09-12T05:08:56;5.65;;;4.18;;
37231;SDS011;23125;48.156;15.954;2022-09-12T05:11:25;5.57;;;3.85;;
37231;SDS011;23125;48.156;15.954;2022-09-12T05:13:56;5.38;;;4.20;;
37231;SDS011;23125;48.156;15.954;2022-09-12T05:16:22;5.22;;;4.07;;
37231;SDS011;23125;48.156;15.954;2022-09-12T05:18:50;4.90;;;3.92;;
37231;SDS011;23125;48.156;15.954;2022-09-12T05:21:18;4.65;;;3.90;;
37231;SDS011;23125;48.156;15.954;2022-09-12T05:23:45;4.88;;;3.85;;
37231;SDS011;23125;48.156;15.954;2022-09-12T05:26:13;5.47;;;4.38;;
37231;SDS011;23125;48.156;15.954;2022-09-12T05:28:40;5.05;;;4.50;;
37231;SDS011;23125;48.156;15.954;2022-09-12T05:31:11;5.97;;;4.07;;
37231;SDS011;23125;48.156;15.954;2022-09-12T05:33:39;7.93;;;4.53;;
37231;SDS011;23125;48.156;15.954;2022-09-12T05:36:08;6.88;;;3.83;;
37231;SDS011;23125;48.156;15.954;2022-09-12T05:41:09;5.40;;;3.72;;
37231;SDS011;23125;48.156;15.954;2022-09-12T05:43:36;6.38;;;4.78;;
37231;SDS011;23125;48.156;15.954;2022-09-12T05:46:04;4.10;;;3.53;;
37231;SDS011;23125;48.156;15.954;2022-09-12T05:48:33;8.35;;;4.20;;
37231;SDS011;23125;48.156;15.954;2022-09-12T05:51:08;5.63;;;4.55;;
37231;SDS011;23125;48.156;15.954;2022-09-12T05:53:35;9.52;;;4.60;;
37231;SDS011;23125;48.156;15.954;2022-09-12T05:56:09;4.60;;;3.72;;
37231;SDS011;23125;48.156;15.954;2022-09-12T05:58:40;6.20;;;4.28;;
37231;SDS011;23125;48.156;15.954;2022-09-12T06:01:09;7.30;;;4.30;;
37231;SDS011;23125;48.156;15.954;2022-09-12T06:03:43;7.05;;;3.53;;
37231;SDS011;23125;48.156;15.954;2022-09-12T06:06:14;6.55;;;3.95;;
37231;SDS011;23125;48.156;15.954;2022-09-12T06:08:43;6.75;;;3.88;;
37231;SDS011;23125;48.156;15.954;2022-09-12T06:11:12;6.40;;;3.80;;
37231;SDS011;23125;48.156;15.954;2022-09-12T06:13:40;7.15;;;3.92;;
37231;SDS011;23125;48.156;15.954;2022-09-12T06:18:35;6.63;;;4.65;;
37231;SDS011;23125;48.156;15.954;2022-09-12T06:21:03;7.30;;;5.20;;
37231;SDS011;23125;48.156;15.954;2022-09-12T06:23:31;7.13;;;4.90;;
37231;SDS011;23125;48.156;15.954;2022-09-12T06:25:57;8.52;;;5.38;;
37231;SDS011;23125;48.156;15.954;2022-09-12T06:28:24;7.40;;;5.18;;
37231;SDS011;23125;48.156;15.954;2022-09-12T06:30:50;7.60;;;5.95;;
37231;SDS011;23125;48.156;15.954;2022-09-12T06:33:17;7.35;;;5.85;;
37231;SDS011;23125;48.156;15.954;2022-09-12T06:35:43;6.60;;;5.00;;
37231;SDS011;23125;48.156;15.954;2022-09-12T06:38:09;6.93;;;4.93;;
37231;SDS011;23125;48.156;15.954;2022-09-12T06:40:41;6.88;;;5.13;;
37231;SDS011;23125;48.156;15.954;2022-09-12T06:43:10;6.53;;;4.90;;
37231;SDS011;23125;48.156;15.954;2022-09-12T06:45:38;4.95;;;3.92;;
37231;SDS011;23125;48.156;15.954;2022-09-12T06:48:03;5.10;;;4.15;;
37231;SDS011;23125;48.156;15.954;2022-09-12T06:50:30;5.65;;;4.45;;
37231;SDS011;23125;48.156;15.954;2022-09-12T06:52:56;6.35;;;3.55;;
37231;SDS011;23125;48.156;15.954;2022-09-12T06:55:21;5.65;;;4.47;;
37231;SDS011;23125;48.156;15.954;2022-09-12T06:57:48;5.40;;;3.83;;
37231;SDS011;23125;48.156;15.954;2022-09-12T07:00:16;4.22;;;3.83;;
37231;SDS011;23125;48.156;15.954;2022-09-12T07:02:42;4.07;;;3.55;;
37231;SDS011;23125;48.156;15.954;2022-09-12T07:05:08;6.30;;;3.90;;
37231;SDS011;23125;48.156;15.954;2022-09-12T07:07:35;6.60;;;3.83;;
37231;SDS011;23125;48.156;15.954;2022-09-12T07:10:01;6.03;;;3.60;;
37231;SDS011;23125;48.156;15.954;2022-09-12T07:12:27;7.70;;;3.97;;
37231;SDS011;23125;48.156;15.954;2022-09-12T07:14:54;8.13;;;4.45;;
37231;SDS011;23125;48.156;15.954;2022-09-12T07:17:19;8.10;;;4.30;;
37231;SDS011;23125;48.156;15.954;2022-09-12T07:19:45;9.88;;;4.07;;
37231;SDS011;23125;48.156;15.954;2022-09-12T07:22:11;5.60;;;3.83;;
37231;SDS011;23125;48.156;15.954;2022-09-12T07:24:38;5.20;;;3.70;;
37231;SDS011;23125;48.156;15.954;2022-09-12T07:27:05;7.07;;;3.95;;
37231;SDS011;23125;48.156;15.954;2022-09-12T07:29:31;4.22;;;3.47;;
37231;SDS011;23125;48.156;15.954;2022-09-12T07:31:56;7.82;;;4.07;;
37231;SDS011;23125;48.156;15.954;2022-09-12T07:34:24;5.55;;;3.40;;
37231;SDS011;23125;48.156;15.954;2022-09-12T07:36:49;4.47;;;3.40;;
37231;SDS011;23125;48.156;15.954;2022-09-12T07:39:15;4.00;;;3.45;;
37231;SDS011;23125;48.156;15.954;2022-09-12T07:41:41;4.30;;;3.40;;
37231;SDS011;23125;48.156;15.954;2022-09-12T07:44:07;5.13;;;3.60;;
37231;SDS011;23125;48.156;15.954;2022-09-12T07:46:33;3.67;;;3.08;;
37231;SDS011;23125;48.156;15.954;2022-09-12T07:48:59;5.70;;;3.90;;
37231;SDS011;23125;48.156;15.954;2022-09-12T07:51:26;7.38;;;3.67;;
37231;SDS011;23125;48.156;15.954;2022-09-12T07:53:53;10.50;;;4.88;;
37231;SDS011;23125;48.156;15.954;2022-09-12T07:56:20;6.40;;;3.72;;
37231;SDS011;23125;48.156;15.954;2022-09-12T07:58:48;8.98;;;3.95;;
37231;SDS011;23125;48.156;15.954;2022-09-12T08:01:15;8.18;;;3.67;;
37231;SDS011;23125;48.156;15.954;2022-09-12T08:03:44;7.95;;;3.70;;
37231;SDS011;23125;48.156;15.954;2022-09-12T08:06:13;11.85;;;4.68;;
37231;SDS011;23125;48.156;15.954;2022-09-12T08:08:48;9.48;;;4.35;;
37231;SDS011;23125;48.156;15.954;2022-09-12T08:11:17;11.25;;;4.80;;
37231;SDS011;23125;48.156;15.954;2022-09-12T08:13:44;7.15;;;4.95;;
37231;SDS011;23125;48.156;15.954;2022-09-12T08:16:12;5.88;;;3.72;;
37231;SDS011;23125;48.156;15.954;2022-09-12T08:18:39;4.10;;;3.10;;
37231;SDS011;23125;48.156;15.954;2022-09-12T08:21:07;4.20;;;3.00;;
37231;SDS011;23125;48.156;15.954;2022-09-12T08:23:37;6.63;;;3.47;;
37231;SDS011;23125;48.156;15.954;2022-09-12T08:26:04;3.75;;;2.92;;
37231;SDS011;23125;48.156;15.954;2022-09-12T08:28:31;7.38;;;3.92;;
37231;SDS011;23125;48.156;15.954;2022-09-12T08:30:59;5.03;;;3.40;;
37231;SDS011;23125;48.156;15.954;2022-09-12T08:33:27;5.28;;;3.90;;
37231;SDS011;23125;48.156;15.954;2022-09-12T08:36:03;4.57;;;3.47;;
37231;SDS011;23125;48.156;15.954;2022-09-12T08:38:38;5.95;;;4.20;;
37231;SDS011;23125;48.156;15.954;2022-09-12T08:46:26;3.72;;;3.20;;
37231;SDS011;23125;48.156;15.954;2022-09-12T08:49:00;4.70;;;3.55;;
37231;SDS011;23125;48.156;15.954;2022-09-12T08:51:28;3.60;;;3.13;;
37231;SDS011;23125;48.156;15.954;2022-09-12T08:53:58;4.80;;;3.53;;
37231;SDS011;23125;48.156;15.954;2022-09-12T08:56:27;4.10;;;3.25;;
37231;SDS011;23125;48.156;15.954;2022-09-12T08:58:57;11.65;;;4.57;;
37231;SDS011;23125;48.156;15.954;2022-09-12T09:01:28;3.53;;;2.95;;
37231;SDS011;23125;48.156;15.954;2022-09-12T09:17:40;7.70;;;2.97;;
37231;SDS011;23125;48.156;15.954;2022-09-12T09:23:19;4.35;;;2.90;;
37231;SDS011;23125;48.156;15.954;2022-09-12T09:26:00;4.43;;;2.83;;
37231;SDS011;23125;48.156;15.954;2022-09-12T09:31:15;8.88;;;3.47;;
37231;SDS011;23125;48.156;15.954;2022-09-12T09:33:43;4.07;;;2.75;;
37231;SDS011;23125;48.156;15.954;2022-09-12T09:44:15;4.45;;;2.70;;
37231;SDS011;23125;48.156;15.954;2022-09-12T09:46:41;8.65;;;3.97;;
37231;SDS011;23125;48.156;15.954;2022-09-12T09:49:08;3.55;;;2.55;;
37231;SDS011;23125;48.156;15.954;2022-09-12T09:51:39;5.20;;;2.45;;
37231;SDS011;23125;48.156;15.954;2022-09-12T09:56:47;4.47;;;3.00;;
37231;SDS011;23125;48.156;15.954;2022-09-12T10:01:45;3.35;;;2.60;;
37231;SDS011;23125;48.156;15.954;2022-09-12T10:04:20;3.42;;;2.42;;
37231;SDS011;23125;48.156;15.954;2022-09-12T10:06:51;3.58;;;2.85;;
37231;SDS011;23125;48.156;15.954;2022-09-12T10:09:23;3.13;;;2.60;;
37231;SDS011;23125;48.156;15.954;2022-09-12T10:11:51;3.88;;;2.58;;
37231;SDS011;23125;48.156;15.954;2022-09-12T10:14:37;2.88;;;2.55;;
37231;SDS011;23125;48.156;15.954;2022-09-12T10:17:22;3.75;;;2.80;;
37231;SDS011;23125;48.156;15.954;2022-09-12T10:19:52;5.07;;;3.05;;
37231;SDS011;23125;48.156;15.954;2022-09-12T10:22:19;4.35;;;2.80;;
37231;SDS011;23125;48.156;15.954;2022-09-12T10:24:52;5.88;;;3.03;;
37231;SDS011;23125;48.156;15.954;2022-09-12T10:27:21;4.57;;;2.83;;
37231;SDS011;23125;48.156;15.954;2022-09-12T10:32:52;3.17;;;2.40;;
37231;SDS011;23125;48.156;15.954;2022-09-12T10:35:28;2.67;;;2.30;;
37231;SDS011;23125;48.156;15.954;2022-09-12T10:38:10;4.57;;;2.88;;
37231;SDS011;23125;48.156;15.954;2022-09-12T10:40:53;3.15;;;2.70;;
37231;SDS011;23125;48.156;15.954;2022-09-12T10:43:39;3.42;;;2.72;;
37231;SDS011;23125;48.156;15.954;2022-09-12T10:48:47;4.70;;;3.30;;
37231;SDS011;23125;48.156;15.954;2022-09-12T10:53:47;4.50;;;3.25;;
37231;SDS011;23125;48.156;15.954;2022-09-12T10:56:18;3.92;;;2.90;;
37231;SDS011;23125;48.156;15.954;2022-09-12T11:01:44;3.42;;;3.05;;
37231;SDS011;23125;48.156;15.954;2022-09-12T11:06:46;4.10;;;3.10;;
37231;SDS011;23125;48.156;15.954;2022-09-12T11:17:50;3.40;;;2.80;;
37231;SDS011;23125;48.156;15.954;2022-09-12T11:28:46;5.35;;;3.33;;
37231;SDS011;23125;48.156;15.954;2022-09-12T11:31:38;6.40;;;2.92;;
37231;SDS011;23125;48.156;15.954;2022-09-12T11:34:22;3.42;;;2.60;;
37231;SDS011;23125;48.156;15.954;2022-09-12T11:37:07;3.25;;;2.88;;
37231;SDS011;23125;48.156;15.954;2022-09-12T11:39:58;3.33;;;2.70;;
37231;SDS011;23125;48.156;15.954;2022-09-12T11:42:32;4.00;;;2.80;;
37231;SDS011;23125;48.156;15.954;2022-09-12T11:45:13;3.22;;;2.53;;
37231;SDS011;23125;48.156;15.954;2022-09-12T11:47:45;5.20;;;2.30;;
37231;SDS011;23125;48.156;15.954;2022-09-12T11:50:20;3.20;;;2.83;;
37231;SDS011;23125;48.156;15.954;2022-09-12T11:52:50;3.35;;;2.67;;
37231;SDS011;23125;48.156;15.954;2022-09-12T11:55:21;4.20;;;2.78;;
37231;SDS011;23125;48.156;15.954;2022-09-12T11:57:57;3.53;;;2.60;;
37231;SDS011;23125;48.156;15.954;2022-09-12T12:00:25;3.55;;;2.47;;
37231;SDS011;23125;48.156;15.954;2022-09-12T12:03:14;3.30;;;2.72;;
37231;SDS011;23125;48.156;15.954;2022-09-12T12:06:01;3.67;;;2.85;;
37231;SDS011;23125;48.156;15.954;2022-09-12T12:08:30;2.83;;;2.33;;
37231;SDS011;23125;48.156;15.954;2022-09-12T12:11:03;2.97;;;2.05;;
37231;SDS011;23125;48.156;15.954;2022-09-12T12:16:00;4.05;;;2.78;;
37231;SDS011;23125;48.156;15.954;2022-09-12T12:18:31;3.00;;;2.30;;
37231;SDS011;23125;48.156;15.954;2022-09-12T12:24:13;2.38;;;1.70;;
37231;SDS011;23125;48.156;15.954;2022-09-12T12:26:43;3.20;;;2.15;;
37231;SDS011;23125;48.156;15.954;2022-09-12T12:34:36;2.65;;;2.30;;
37231;SDS011;23125;48.156;15.954;2022-09-12T12:47:43;2.88;;;2.45;;
37231;SDS011;23125;48.156;15.954;2022-09-12T12:57:54;4.05;;;2.42;;
37231;SDS011;23125;48.156;15.954;2022-09-12T13:05:21;2.75;;;2.45;;
37231;SDS011;23125;48.156;15.954;2022-09-12T13:08:01;3.13;;;2.40;;
37231;SDS011;23125;48.156;15.954;2022-09-12T13:10:34;2.83;;;2.40;;
37231;SDS011;23125;48.156;15.954;2022-09-12T13:13:02;3.05;;;2.22;;
37231;SDS011;23125;48.156;15.954;2022-09-12T13:18:01;3.60;;;2.60;;
37231;SDS011;23125;48.156;15.954;2022-09-12T13:20:37;3.05;;;2.60;;
37231;SDS011;23125;48.156;15.954;2022-09-12T13:23:30;3.45;;;2.03;;
37231;SDS011;23125;48.156;15.954;2022-09-12T13:25:58;3.10;;;2.13;;
37231;SDS011;23125;48.156;15.954;2022-09-12T13:28:26;2.85;;;2.17;;
